createdAt,value
2022-08-20T00:00:26.733Z,18.70
2022-08-20T00:02:59.698Z,18.60
2022-08-20T00:05:36.156Z,18.70
2022-08-20T00:08:04.139Z,18.60
2022-08-20T00:10:32.872Z,18.60
2022-08-20T00:13:00.179Z,18.60
2022-08-20T00:15:30.667Z,18.60
2022-08-20T00:17:59.084Z,18.50
2022-08-20T00:20:29.336Z,18.50
2022-08-20T00:22:57.563Z,18.50
2022-08-20T00:25:25.717Z,18.50
2022-08-20T00:27:52.502Z,18.40
2022-08-20T00:30:19.424Z,18.40
2022-08-20T00:32:53.425Z,18.40
2022-08-20T00:35:24.523Z,18.30
2022-08-20T00:37:51.278Z,18.30
2022-08-20T00:40:22.806Z,18.30
2022-08-20T00:42:58.144Z,18.20
2022-08-20T00:45:27.975Z,18.20
2022-08-20T00:47:55.530Z,18.10
2022-08-20T00:50:29.541Z,18.10
2022-08-20T00:52:56.996Z,18.10
2022-08-20T00:55:30.972Z,18.10
2022-08-20T00:58:05.264Z,18.10
2022-08-20T01:00:44.672Z,18.10
2022-08-20T01:03:14.968Z,18.10
2022-08-20T01:05:48.353Z,18.10
2022-08-20T01:08:18.131Z,18.10
2022-08-20T01:10:48.292Z,18.10
2022-08-20T01:13:20.482Z,18.00
2022-08-20T01:15:49.516Z,18.10
2022-08-20T01:18:20.227Z,18.10
2022-08-20T01:20:51.716Z,18.10
2022-08-20T01:23:44.800Z,18.00
2022-08-20T01:26:27.321Z,18.00
2022-08-20T01:29:04.489Z,18.00
2022-08-20T01:31:34.280Z,18.00
2022-08-20T01:34:04.118Z,18.00
2022-08-20T01:36:37.029Z,17.90
2022-08-20T01:39:08.062Z,17.90
2022-08-20T01:41:57.999Z,17.90
2022-08-20T01:44:24.969Z,17.90
2022-08-20T01:46:57.793Z,17.90
2022-08-20T01:49:26.334Z,18.00
2022-08-20T01:51:55.944Z,18.00
2022-08-20T01:54:23.902Z,18.00
2022-08-20T01:57:10.080Z,18.00
2022-08-20T01:59:37.066Z,18.00
2022-08-20T02:02:04.597Z,18.00
2022-08-20T02:04:31.326Z,18.00
2022-08-20T02:07:01.338Z,17.90
2022-08-20T02:09:30.371Z,18.00
2022-08-20T02:11:57.854Z,18.00
2022-08-20T02:14:25.395Z,18.00
2022-08-20T02:16:55.179Z,18.00
2022-08-20T02:19:29.359Z,18.00
2022-08-20T02:21:59.868Z,18.00
2022-08-20T02:24:26.623Z,17.90
2022-08-20T02:26:54.400Z,17.90
2022-08-20T02:29:21.188Z,17.80
2022-08-20T02:32:25.155Z,17.80
2022-08-20T02:34:35.786Z,17.70
2022-08-20T02:37:04.070Z,17.80
2022-08-20T02:39:30.898Z,17.80
2022-08-20T02:41:57.669Z,17.80
2022-08-20T02:44:24.501Z,17.80
2022-08-20T02:46:51.213Z,17.80
2022-08-20T02:49:18.804Z,17.80
2022-08-20T02:51:46.213Z,17.80
2022-08-20T02:54:14.168Z,17.90
2022-08-20T02:56:41.458Z,17.80
2022-08-20T02:59:08.372Z,17.90
2022-08-20T03:01:37.849Z,17.90
2022-08-20T03:04:05.180Z,17.90
2022-08-20T03:06:32.305Z,17.90
2022-08-20T03:08:59.396Z,17.90
2022-08-20T03:11:26.159Z,17.90
2022-08-20T03:13:52.951Z,17.90
2022-08-20T03:16:20.242Z,17.90
2022-08-20T03:18:47.634Z,17.90
2022-08-20T03:21:18.857Z,17.90
2022-08-20T03:23:45.997Z,17.90
2022-08-20T03:28:41.891Z,17.90
2022-08-20T03:31:09.559Z,17.90
2022-08-20T03:33:39.639Z,17.80
2022-08-20T03:36:22.218Z,17.80
2022-08-20T03:38:56.206Z,17.80
2022-08-20T03:41:23.878Z,17.80
2022-08-20T03:43:51.669Z,17.80
2022-08-20T03:46:23.264Z,17.80
2022-08-20T03:48:56.462Z,17.80
2022-08-20T03:51:30.557Z,17.70
2022-08-20T03:53:57.812Z,17.70
2022-08-20T03:56:25.085Z,17.70
2022-08-20T03:58:51.854Z,17.70
2022-08-20T04:01:45.207Z,17.70
2022-08-20T04:04:05.321Z,17.70
2022-08-20T04:06:39.479Z,17.70
2022-08-20T04:09:07.364Z,17.70
2022-08-20T04:11:37.533Z,17.70
2022-08-20T04:14:04.710Z,17.70
2022-08-20T04:16:33.005Z,17.70
2022-08-20T04:19:02.188Z,17.70
2022-08-20T04:21:32.742Z,17.60
2022-08-20T04:24:01.503Z,17.70
2022-08-20T04:26:28.477Z,17.70
2022-08-20T04:28:55.637Z,17.70
2022-08-20T04:31:25.383Z,17.70
2022-08-20T04:33:52.751Z,17.70
2022-08-20T04:36:19.488Z,17.70
2022-08-20T04:38:49.657Z,17.70
2022-08-20T04:41:22.786Z,17.70
2022-08-20T04:43:53.497Z,17.70
2022-08-20T04:46:21.166Z,17.70
2022-08-20T04:48:48.807Z,17.70
2022-08-20T04:51:18.060Z,17.70
2022-08-20T04:53:53.174Z,17.70
2022-08-20T04:56:24.294Z,17.70
2022-08-20T04:58:52.460Z,17.70
2022-08-20T05:01:20.051Z,17.70
2022-08-20T05:03:49.562Z,17.70
2022-08-20T05:06:18.082Z,17.70
2022-08-20T05:08:45.582Z,17.70
2022-08-20T05:11:32.794Z,17.70
2022-08-20T05:14:01.534Z,17.70
2022-08-20T05:16:28.259Z,17.70
2022-08-20T05:18:55.024Z,17.70
2022-08-20T05:21:21.786Z,17.60
2022-08-20T05:23:49.190Z,17.70
2022-08-20T05:26:17.003Z,17.70
2022-08-20T05:28:57.470Z,17.70
2022-08-20T05:31:31.271Z,17.70
2022-08-20T05:34:11.095Z,17.70
2022-08-20T05:36:45.333Z,17.70
2022-08-20T05:39:14.462Z,17.70
2022-08-20T05:41:41.819Z,17.70
2022-08-20T05:44:10.813Z,17.70
2022-08-20T05:46:41.211Z,17.70
2022-08-20T05:49:10.386Z,17.70
2022-08-20T05:51:37.485Z,17.70
2022-08-20T05:54:06.124Z,17.70
2022-08-20T05:56:33.893Z,17.70
2022-08-20T05:59:04.849Z,17.70
2022-08-20T06:01:33.460Z,17.70
2022-08-20T06:04:19.278Z,17.70
2022-08-20T06:06:47.272Z,17.80
2022-08-20T06:09:31.031Z,17.80
2022-08-20T06:12:04.385Z,17.80
2022-08-20T06:14:31.932Z,17.80
2022-08-20T06:17:13.347Z,17.90
2022-08-20T06:19:44.127Z,17.90
2022-08-20T06:22:18.230Z,17.90
2022-08-20T06:24:53.137Z,18.00
2022-08-20T06:27:20.949Z,18.00
2022-08-20T06:29:48.367Z,18.10
2022-08-20T06:32:15.164Z,18.20
2022-08-20T06:34:50.145Z,18.20
2022-08-20T06:37:28.182Z,18.30
2022-08-20T06:40:03.040Z,18.30
2022-08-20T06:42:29.881Z,18.30
2022-08-20T06:45:06.804Z,18.30
2022-08-20T06:47:34.765Z,18.30
2022-08-20T06:50:01.520Z,18.30
2022-08-20T06:52:35.075Z,18.30
2022-08-20T06:55:16.161Z,18.30
2022-08-20T06:57:43.471Z,18.30
2022-08-20T07:00:18.325Z,18.30
2022-08-20T07:02:46.989Z,18.40
2022-08-20T07:05:14.246Z,18.40
2022-08-20T07:07:45.016Z,18.50
2022-08-20T07:10:13.973Z,18.50
2022-08-20T07:12:40.796Z,18.50
2022-08-20T07:15:10.041Z,18.60
2022-08-20T07:17:38.024Z,18.60
2022-08-20T07:20:11.806Z,18.60
2022-08-20T07:22:38.583Z,18.70
2022-08-20T07:25:08.722Z,18.70
2022-08-20T07:27:36.520Z,18.70
2022-08-20T07:30:24.089Z,18.70
2022-08-20T07:32:51.202Z,18.80
2022-08-20T07:35:19.245Z,18.80
2022-08-20T07:37:51.897Z,18.80
2022-08-20T07:40:27.468Z,18.90
2022-08-20T07:43:00.754Z,18.90
2022-08-20T07:45:27.921Z,19.00
2022-08-20T07:47:55.896Z,19.00
2022-08-20T07:50:25.164Z,19.00
2022-08-20T07:52:53.183Z,19.10
2022-08-20T07:55:21.473Z,19.10
2022-08-20T07:57:50.191Z,19.10
2022-08-20T08:00:19.434Z,19.20
2022-08-20T08:02:46.745Z,19.20
2022-08-20T08:05:14.057Z,19.30
2022-08-20T08:07:42.999Z,19.30
2022-08-20T08:10:15.247Z,19.30
2022-08-20T08:12:48.710Z,19.40
2022-08-20T08:15:18.746Z,19.40
2022-08-20T08:17:48.532Z,19.50
2022-08-20T08:20:16.331Z,19.50
2022-08-20T08:22:44.161Z,19.60
2022-08-20T08:25:13.014Z,19.60
2022-08-20T08:27:40.877Z,19.70
2022-08-20T08:30:09.566Z,19.70
2022-08-20T08:32:37.469Z,19.80
2022-08-20T08:35:07.616Z,19.80
2022-08-20T08:37:35.082Z,19.90
2022-08-20T08:40:02.601Z,19.90
2022-08-20T08:42:43.221Z,20.00
2022-08-20T08:45:12.458Z,20.10
2022-08-20T08:47:41.202Z,20.10
2022-08-20T08:50:21.900Z,20.20
2022-08-20T08:53:02.676Z,20.30
2022-08-20T08:55:30.819Z,20.30
2022-08-20T08:58:04.272Z,20.40
2022-08-20T09:00:55.923Z,20.50
2022-08-20T09:03:37.544Z,20.60
2022-08-20T09:06:04.696Z,20.50
2022-08-20T09:08:43.888Z,20.70
2022-08-20T09:11:10.623Z,20.80
2022-08-20T09:13:37.412Z,20.90
2022-08-20T09:16:04.365Z,21.10
2022-08-20T09:18:31.192Z,21.30
2022-08-20T09:20:57.950Z,21.40
2022-08-20T09:23:24.725Z,21.50
2022-08-20T09:25:51.445Z,21.60
2022-08-20T09:28:18.205Z,21.70
2022-08-20T09:30:44.944Z,21.70
2022-08-20T09:33:13.237Z,21.50
2022-08-20T09:35:40.825Z,21.50
2022-08-20T09:38:07.936Z,21.50
2022-08-20T09:40:34.853Z,21.60
2022-08-20T09:43:03.433Z,21.70
2022-08-20T09:45:30.311Z,21.90
2022-08-20T09:47:57.446Z,22.10
2022-08-20T09:50:33.890Z,22.20
2022-08-20T09:53:03.155Z,22.20
2022-08-20T09:55:37.889Z,22.00
2022-08-20T09:58:12.152Z,21.90
2022-08-20T10:00:39.717Z,21.80
2022-08-20T10:03:06.440Z,21.70
2022-08-20T10:05:33.174Z,21.70
2022-08-20T10:07:59.867Z,22.00
2022-08-20T10:10:26.653Z,22.50
2022-08-20T10:12:55.070Z,22.80
2022-08-20T10:15:22.180Z,23.00
2022-08-20T10:17:48.926Z,23.50
2022-08-20T10:20:16.136Z,23.50
2022-08-20T10:22:42.876Z,23.10
2022-08-20T10:25:10.346Z,22.90
2022-08-20T10:27:38.113Z,22.70
2022-08-20T10:30:06.450Z,22.50
2022-08-20T10:32:35.556Z,22.30
2022-08-20T10:35:02.676Z,22.10
2022-08-20T10:37:29.517Z,22.00
2022-08-20T10:39:56.602Z,21.80
2022-08-20T10:42:23.594Z,21.70
2022-08-20T10:44:50.460Z,21.70
2022-08-20T10:47:21.956Z,21.50
2022-08-20T10:49:50.861Z,21.30
2022-08-20T10:52:17.932Z,21.20
2022-08-20T10:54:45.304Z,21.10
2022-08-20T10:57:18.254Z,21.20
2022-08-20T10:59:47.120Z,21.10
2022-08-20T11:02:14.706Z,21.10
2022-08-20T11:04:41.782Z,21.20
2022-08-20T11:07:13.529Z,21.20
2022-08-20T11:09:40.640Z,21.20
2022-08-20T11:12:07.987Z,21.30
2022-08-20T11:14:34.742Z,21.20
2022-08-20T11:17:02.185Z,21.20
2022-08-20T11:19:29.931Z,21.20
2022-08-20T11:21:57.304Z,21.20
2022-08-20T11:24:24.635Z,21.20
2022-08-20T11:26:53.680Z,21.20
2022-08-20T11:29:22.910Z,21.20
2022-08-20T11:31:50.290Z,21.10
2022-08-20T11:34:17.933Z,21.10
2022-08-20T11:36:47.997Z,21.10
2022-08-20T11:39:16.274Z,21.10
2022-08-20T11:41:45.788Z,21.10
2022-08-20T11:44:20.069Z,21.20
2022-08-20T11:46:48.885Z,21.20
2022-08-20T11:49:15.948Z,21.20
2022-08-20T11:51:49.883Z,21.20
2022-08-20T11:54:17.649Z,21.20
2022-08-20T11:56:45.932Z,21.20
2022-08-20T11:59:13.672Z,21.20
2022-08-20T12:01:40.457Z,21.10
2022-08-20T12:04:07.199Z,21.10
2022-08-20T12:06:33.940Z,21.10
2022-08-20T12:09:00.794Z,21.00
2022-08-20T12:11:27.581Z,21.00
2022-08-20T12:13:54.571Z,21.00
2022-08-20T12:16:21.353Z,21.00
2022-08-20T12:18:48.832Z,21.10
2022-08-20T12:21:15.628Z,21.20
2022-08-20T12:23:42.487Z,21.20
2022-08-20T12:26:09.273Z,21.20
2022-08-20T12:28:36.007Z,21.20
2022-08-20T12:31:02.735Z,21.30
2022-08-20T12:33:29.747Z,21.30
2022-08-20T12:35:57.585Z,21.40
2022-08-20T12:38:24.309Z,21.40
2022-08-20T12:40:51.000Z,21.40
2022-08-20T12:43:19.700Z,21.40
2022-08-20T12:45:49.649Z,21.40
2022-08-20T12:48:16.439Z,21.40
2022-08-20T12:50:45.657Z,21.50
2022-08-20T12:53:12.589Z,21.50
2022-08-20T12:55:39.342Z,21.60
2022-08-20T12:58:09.070Z,21.60
2022-08-20T13:00:45.981Z,21.70
2022-08-20T13:03:18.585Z,21.60
2022-08-20T13:05:45.351Z,21.70
2022-08-20T13:08:13.136Z,21.70
2022-08-20T13:10:46.625Z,21.70
2022-08-20T13:13:21.267Z,21.60
2022-08-20T13:15:49.922Z,21.50
2022-08-20T13:18:17.143Z,21.60
2022-08-20T13:20:43.839Z,21.60
2022-08-20T13:23:10.698Z,21.70
2022-08-20T13:25:37.420Z,21.70
2022-08-20T13:28:05.755Z,21.70
2022-08-20T13:30:34.800Z,21.70
2022-08-20T13:33:01.885Z,21.80
2022-08-20T13:35:28.696Z,21.90
2022-08-20T13:37:55.461Z,21.90
2022-08-20T13:40:22.427Z,21.90
2022-08-20T13:42:49.368Z,22.00
2022-08-20T13:45:16.182Z,22.10
2022-08-20T13:47:43.383Z,22.20
2022-08-20T13:50:17.768Z,22.30
2022-08-20T13:52:44.794Z,22.30
2022-08-20T13:55:15.936Z,22.30
2022-08-20T13:57:44.810Z,22.30
2022-08-20T14:00:31.670Z,22.30
2022-08-20T14:02:59.811Z,22.30
2022-08-20T14:05:26.546Z,22.30
2022-08-20T14:07:53.251Z,22.30
2022-08-20T14:10:25.303Z,22.30
2022-08-20T14:12:53.309Z,22.40
2022-08-20T14:15:20.213Z,22.40
2022-08-20T14:17:52.946Z,22.40
2022-08-20T14:20:22.576Z,22.40
2022-08-20T14:22:49.448Z,22.30
2022-08-20T14:25:18.748Z,22.40
2022-08-20T14:27:46.037Z,22.30
2022-08-20T14:30:16.002Z,22.30
2022-08-20T14:32:42.965Z,22.20
2022-08-20T14:35:10.507Z,22.20
2022-08-20T14:37:43.241Z,22.10
2022-08-20T14:40:13.910Z,22.00
2022-08-20T14:42:41.144Z,21.90
2022-08-20T14:45:12.128Z,21.80
2022-08-20T14:47:41.878Z,21.80
2022-08-20T14:50:13.274Z,21.80
2022-08-20T14:52:41.216Z,21.80
2022-08-20T14:55:12.045Z,21.80
2022-08-20T14:57:40.220Z,21.70
2022-08-20T15:00:13.229Z,21.70
2022-08-20T15:02:40.446Z,21.70
2022-08-20T15:05:09.032Z,21.80
2022-08-20T15:07:39.758Z,21.70
2022-08-20T15:10:19.456Z,21.80
2022-08-20T15:12:46.301Z,21.90
2022-08-20T15:15:15.867Z,21.90
2022-08-20T15:17:46.248Z,22.00
2022-08-20T15:20:20.321Z,22.00
2022-08-20T15:22:48.376Z,21.90
2022-08-20T15:25:18.027Z,21.90
2022-08-20T15:27:45.312Z,21.90
2022-08-20T15:30:19.673Z,21.90
2022-08-20T15:32:48.507Z,21.90
2022-08-20T15:35:18.409Z,21.90
2022-08-20T15:37:48.126Z,21.90
2022-08-20T15:40:18.708Z,21.90
2022-08-20T15:42:56.841Z,21.90
2022-08-20T15:45:23.750Z,21.90
2022-08-20T15:47:55.424Z,21.80
2022-08-20T15:50:38.454Z,21.80
2022-08-20T15:53:11.161Z,21.80
2022-08-20T15:55:42.733Z,21.90
2022-08-20T15:58:23.969Z,22.00
2022-08-20T16:01:40.466Z,22.10
2022-08-20T16:04:42.560Z,22.20
2022-08-20T16:07:34.807Z,22.30
2022-08-20T16:10:16.047Z,22.40
2022-08-20T16:12:48.309Z,22.50
2022-08-20T16:15:21.644Z,22.50
2022-08-20T16:18:16.867Z,22.60
2022-08-20T16:20:53.885Z,22.50
2022-08-20T16:23:28.888Z,22.60
2022-08-20T16:26:17.306Z,22.50
2022-08-20T16:29:11.268Z,22.50
2022-08-20T16:31:53.637Z,22.50
2022-08-20T16:34:37.336Z,22.50
2022-08-20T16:37:22.422Z,22.50
2022-08-20T16:39:59.808Z,22.50
2022-08-20T16:42:37.316Z,22.60
2022-08-20T16:45:07.208Z,22.70
2022-08-20T16:47:38.032Z,22.80
2022-08-20T16:50:20.352Z,22.80
2022-08-20T16:52:48.074Z,22.80
2022-08-20T16:55:15.719Z,22.80
2022-08-20T16:57:42.926Z,22.70
2022-08-20T17:00:23.592Z,22.70
2022-08-20T17:02:54.714Z,22.70
2022-08-20T17:05:23.921Z,22.60
2022-08-20T17:07:53.276Z,22.60
2022-08-20T17:10:29.981Z,22.60
2022-08-20T17:13:15.256Z,22.60
2022-08-20T17:15:44.055Z,22.50
2022-08-20T17:18:29.460Z,22.50
2022-08-20T17:21:12.809Z,22.50
2022-08-20T17:23:55.660Z,22.40
2022-08-20T17:26:31.571Z,22.40
2022-08-20T17:29:01.408Z,22.40
2022-08-20T17:31:39.202Z,22.30
2022-08-20T17:34:12.880Z,22.30
2022-08-20T17:36:49.441Z,22.30
2022-08-20T17:39:19.844Z,22.20
2022-08-20T17:41:50.197Z,22.10
2022-08-20T17:44:31.050Z,22.00
2022-08-20T17:47:02.292Z,22.00
2022-08-20T17:49:39.372Z,22.00
2022-08-20T17:52:18.645Z,21.90
2022-08-20T17:54:48.417Z,21.80
2022-08-20T17:57:17.959Z,21.70
2022-08-20T18:00:01.013Z,21.70
2022-08-20T18:02:30.508Z,21.50
2022-08-20T18:04:57.512Z,21.50
2022-08-20T18:07:33.892Z,21.40
2022-08-20T18:10:12.190Z,21.40
2022-08-20T18:12:38.832Z,21.30
2022-08-20T18:15:08.552Z,21.20
2022-08-20T18:17:54.255Z,21.10
2022-08-20T18:20:34.176Z,21.00
2022-08-20T18:23:31.484Z,20.90
2022-08-20T18:26:05.846Z,20.90
2022-08-20T18:28:47.129Z,20.80
2022-08-20T18:31:51.426Z,20.60
2022-08-20T18:34:28.829Z,20.60
2022-08-20T18:36:58.014Z,20.50
2022-08-20T18:39:31.583Z,20.50
2022-08-20T18:42:22.930Z,20.40
2022-08-20T18:44:53.141Z,20.40
2022-08-20T18:47:28.925Z,20.30
2022-08-20T18:50:16.574Z,20.10
2022-08-20T18:52:49.593Z,20.00
2022-08-20T18:55:28.597Z,19.90
2022-08-20T18:58:02.151Z,19.80
2022-08-20T19:00:41.707Z,19.70
2022-08-20T19:03:08.452Z,19.70
2022-08-20T19:05:56.609Z,19.60
2022-08-20T19:08:37.468Z,19.40
2022-08-20T19:11:18.526Z,19.30
2022-08-20T19:13:46.134Z,19.30
2022-08-20T19:16:19.617Z,19.20
2022-08-20T19:18:51.622Z,19.10
2022-08-20T19:21:36.913Z,19.00
2022-08-20T19:24:07.397Z,18.90
2022-08-20T19:26:44.064Z,18.80
2022-08-20T19:29:16.135Z,18.70
2022-08-20T19:31:44.025Z,18.70
2022-08-20T19:34:22.731Z,18.60
2022-08-20T19:36:57.491Z,18.40
2022-08-20T19:39:25.846Z,18.40
2022-08-20T19:42:12.319Z,18.40
2022-08-20T19:44:45.925Z,18.30
2022-08-20T19:47:26.049Z,18.20
2022-08-20T19:50:14.825Z,18.20
2022-08-20T19:53:12.166Z,18.00
2022-08-20T19:55:40.767Z,18.00
2022-08-20T19:58:22.424Z,18.00
2022-08-20T20:00:54.072Z,18.00
2022-08-20T20:03:32.093Z,17.90
2022-08-20T20:06:17.591Z,17.70
2022-08-20T20:09:04.510Z,17.80
2022-08-20T20:11:36.226Z,17.70
2022-08-20T20:14:15.059Z,17.70
2022-08-20T20:16:43.208Z,17.60
2022-08-20T20:19:28.605Z,17.60
2022-08-20T20:22:19.181Z,17.50
2022-08-20T20:24:57.961Z,17.40
2022-08-20T20:27:27.260Z,17.30
2022-08-20T20:30:13.345Z,17.30
2022-08-20T20:32:46.023Z,17.20
2022-08-20T20:35:25.544Z,17.20
2022-08-20T20:38:02.574Z,17.10
2022-08-20T20:40:52.734Z,17.00
2022-08-20T20:43:34.009Z,16.90
2022-08-20T20:46:15.484Z,16.90
2022-08-20T20:48:50.024Z,16.90
2022-08-20T20:51:23.025Z,16.80
2022-08-20T20:53:54.659Z,16.70
2022-08-20T20:56:43.299Z,16.70
2022-08-20T20:59:11.422Z,16.60
2022-08-20T21:01:48.115Z,16.60
2022-08-20T21:04:19.598Z,16.60
2022-08-20T21:06:46.614Z,16.50
2022-08-20T21:09:13.798Z,16.40
2022-08-20T21:11:40.705Z,16.40
2022-08-20T21:14:07.390Z,16.30
2022-08-20T21:16:34.184Z,16.30
2022-08-20T21:19:04.438Z,16.20
2022-08-20T21:21:31.407Z,16.20
2022-08-20T21:23:58.161Z,16.20
2022-08-20T21:26:26.077Z,16.10
2022-08-20T21:28:52.899Z,16.00
2022-08-20T21:31:19.643Z,16.00
2022-08-20T21:33:46.345Z,15.90
2022-08-20T21:36:13.476Z,15.90
2022-08-20T21:38:40.167Z,15.90
2022-08-20T21:41:07.076Z,15.80
2022-08-20T21:43:33.813Z,15.80
2022-08-20T21:46:03.003Z,15.70
2022-08-20T21:48:30.015Z,15.70
2022-08-20T21:50:56.697Z,15.70
2022-08-20T21:53:23.434Z,15.60
2022-08-20T21:55:50.286Z,15.60
2022-08-20T21:58:18.796Z,15.60
2022-08-20T22:00:57.860Z,15.50
2022-08-20T22:03:28.345Z,15.50
2022-08-20T22:05:56.656Z,15.50
2022-08-20T22:08:28.166Z,15.40
2022-08-20T22:10:57.050Z,15.30
2022-08-20T22:13:31.635Z,15.30
2022-08-20T22:16:03.517Z,15.20
2022-08-20T22:18:30.863Z,15.10
2022-08-20T22:20:57.714Z,15.00
2022-08-20T22:23:24.591Z,15.00
2022-08-20T22:25:51.368Z,15.00
2022-08-20T22:28:19.285Z,15.00
2022-08-20T22:30:46.156Z,14.90
2022-08-20T22:33:22.916Z,14.90
2022-08-20T22:35:52.457Z,14.90
2022-08-20T22:38:20.431Z,14.90
2022-08-20T22:40:47.579Z,14.90
2022-08-20T22:43:15.027Z,14.80
2022-08-20T22:45:44.787Z,14.70
2022-08-20T22:48:14.601Z,14.70
2022-08-20T22:50:41.521Z,14.60
2022-08-20T22:53:08.599Z,14.60
2022-08-20T22:55:35.825Z,14.60
2022-08-20T22:58:02.863Z,14.50
2022-08-20T23:00:32.566Z,14.60
2022-08-20T23:03:01.351Z,14.60
2022-08-20T23:05:31.205Z,14.60
2022-08-20T23:07:59.989Z,14.50
2022-08-20T23:10:29.013Z,14.50
2022-08-20T23:12:57.069Z,14.40
2022-08-20T23:15:26.004Z,14.30
2022-08-20T23:18:00.398Z,14.30
2022-08-20T23:20:27.365Z,14.30
2022-08-20T23:22:54.842Z,14.30
2022-08-20T23:25:21.625Z,14.40
2022-08-20T23:27:50.792Z,14.20
2022-08-20T23:30:19.032Z,14.20
2022-08-20T23:32:45.826Z,14.10
2022-08-20T23:35:13.169Z,14.00
2022-08-20T23:37:46.418Z,14.10
2022-08-20T23:40:15.316Z,14.10
2022-08-20T23:42:42.595Z,14.10
2022-08-20T23:45:10.115Z,14.00
2022-08-20T23:47:37.591Z,14.00
2022-08-20T23:50:06.733Z,13.90
2022-08-20T23:52:33.571Z,13.90
2022-08-20T23:55:00.302Z,13.80
2022-08-20T23:57:27.091Z,13.80
2022-08-20T23:59:53.928Z,13.80
